sensor_id;sensor_type;location;lat;lon;timestamp;P1;durP1;ratioP1;P2;durP2;ratioP2
27957;SDS011;15295;42.658;23.374;2022-11-02T00:02:16;16.80;;;4.95;;
27957;SDS011;15295;42.658;23.374;2022-11-02T00:04:41;18.77;;;5.22;;
27957;SDS011;15295;42.658;23.374;2022-11-02T00:07:07;20.52;;;6.03;;
27957;SDS011;15295;42.658;23.374;2022-11-02T00:09:32;16.88;;;4.80;;
27957;SDS011;15295;42.658;23.374;2022-11-02T00:12:11;17.33;;;5.00;;
27957;SDS011;15295;42.658;23.374;2022-11-02T00:14:36;19.00;;;5.88;;
27957;SDS011;15295;42.658;23.374;2022-11-02T00:17:02;13.65;;;5.28;;
27957;SDS011;15295;42.658;23.374;2022-11-02T00:19:28;13.70;;;5.13;;
27957;SDS011;15295;42.658;23.374;2022-11-02T00:21:54;13.68;;;5.18;;
27957;SDS011;15295;42.658;23.374;2022-11-02T00:24:20;16.52;;;5.63;;
27957;SDS011;15295;42.658;23.374;2022-11-02T00:26:46;19.60;;;5.60;;
27957;SDS011;15295;42.658;23.374;2022-11-02T00:29:12;15.98;;;5.63;;
27957;SDS011;15295;42.658;23.374;2022-11-02T00:31:37;14.38;;;5.50;;
27957;SDS011;15295;42.658;23.374;2022-11-02T00:34:03;13.52;;;5.40;;
27957;SDS011;15295;42.658;23.374;2022-11-02T00:36:28;18.05;;;5.82;;
27957;SDS011;15295;42.658;23.374;2022-11-02T00:38:55;11.77;;;5.03;;
27957;SDS011;15295;42.658;23.374;2022-11-02T00:41:20;16.88;;;5.40;;
27957;SDS011;15295;42.658;23.374;2022-11-02T00:43:50;11.60;;;4.97;;
27957;SDS011;15295;42.658;23.374;2022-11-02T00:46:15;13.85;;;4.70;;
27957;SDS011;15295;42.658;23.374;2022-11-02T00:48:40;18.70;;;4.78;;
27957;SDS011;15295;42.658;23.374;2022-11-02T00:51:06;21.02;;;5.40;;
27957;SDS011;15295;42.658;23.374;2022-11-02T00:53:31;13.57;;;4.20;;
27957;SDS011;15295;42.658;23.374;2022-11-02T00:55:57;20.23;;;4.70;;
27957;SDS011;15295;42.658;23.374;2022-11-02T00:58:22;16.13;;;4.97;;
27957;SDS011;15295;42.658;23.374;2022-11-02T01:00:47;15.52;;;5.47;;
27957;SDS011;15295;42.658;23.374;2022-11-02T01:05:41;14.75;;;4.47;;
27957;SDS011;15295;42.658;23.374;2022-11-02T01:08:07;10.98;;;4.57;;
27957;SDS011;15295;42.658;23.374;2022-11-02T01:10:32;15.57;;;4.60;;
27957;SDS011;15295;42.658;23.374;2022-11-02T01:12:59;16.88;;;5.20;;
27957;SDS011;15295;42.658;23.374;2022-11-02T01:15:25;21.83;;;4.63;;
27957;SDS011;15295;42.658;23.374;2022-11-02T01:17:55;9.85;;;4.13;;
27957;SDS011;15295;42.658;23.374;2022-11-02T01:20:29;9.95;;;4.25;;
27957;SDS011;15295;42.658;23.374;2022-11-02T01:22:56;17.02;;;4.72;;
27957;SDS011;15295;42.658;23.374;2022-11-02T01:25:23;11.48;;;4.80;;
27957;SDS011;15295;42.658;23.374;2022-11-02T01:27:49;17.02;;;5.00;;
27957;SDS011;15295;42.658;23.374;2022-11-02T01:30:14;18.52;;;4.72;;
27957;SDS011;15295;42.658;23.374;2022-11-02T01:32:41;14.02;;;5.53;;
27957;SDS011;15295;42.658;23.374;2022-11-02T01:35:06;17.95;;;5.43;;
27957;SDS011;15295;42.658;23.374;2022-11-02T01:37:32;17.83;;;6.22;;
27957;SDS011;15295;42.658;23.374;2022-11-02T01:39:57;17.48;;;6.25;;
27957;SDS011;15295;42.658;23.374;2022-11-02T01:42:24;17.67;;;6.70;;
27957;SDS011;15295;42.658;23.374;2022-11-02T01:44:52;24.33;;;5.95;;
27957;SDS011;15295;42.658;23.374;2022-11-02T01:47:21;13.10;;;4.60;;
27957;SDS011;15295;42.658;23.374;2022-11-02T01:49:52;18.50;;;5.50;;
27957;SDS011;15295;42.658;23.374;2022-11-02T01:52:22;15.40;;;4.82;;
27957;SDS011;15295;42.658;23.374;2022-11-02T01:57:52;15.52;;;4.95;;
27957;SDS011;15295;42.658;23.374;2022-11-02T02:00:27;13.90;;;5.20;;
27957;SDS011;15295;42.658;23.374;2022-11-02T02:05:27;14.77;;;5.10;;
27957;SDS011;15295;42.658;23.374;2022-11-02T02:07:54;16.40;;;5.82;;
27957;SDS011;15295;42.658;23.374;2022-11-02T02:10:20;18.30;;;5.38;;
27957;SDS011;15295;42.658;23.374;2022-11-02T02:12:53;17.25;;;5.05;;
27957;SDS011;15295;42.658;23.374;2022-11-02T02:15:30;10.13;;;4.68;;
27957;SDS011;15295;42.658;23.374;2022-11-02T02:18:07;13.90;;;4.40;;
27957;SDS011;15295;42.658;23.374;2022-11-02T02:29:23;16.88;;;5.47;;
27957;SDS011;15295;42.658;23.374;2022-11-02T02:32:02;17.92;;;5.72;;
27957;SDS011;15295;42.658;23.374;2022-11-02T02:34:44;15.65;;;6.28;;
27957;SDS011;15295;42.658;23.374;2022-11-02T02:37:15;20.00;;;5.68;;
27957;SDS011;15295;42.658;23.374;2022-11-02T02:42:22;33.20;;;5.78;;
27957;SDS011;15295;42.658;23.374;2022-11-02T02:48:08;16.40;;;5.00;;
27957;SDS011;15295;42.658;23.374;2022-11-02T02:51:06;14.27;;;4.57;;
27957;SDS011;15295;42.658;23.374;2022-11-02T02:53:48;15.05;;;5.25;;
27957;SDS011;15295;42.658;23.374;2022-11-02T02:56:18;13.65;;;4.82;;
27957;SDS011;15295;42.658;23.374;2022-11-02T02:58:48;11.70;;;4.30;;
27957;SDS011;15295;42.658;23.374;2022-11-02T03:01:20;21.42;;;4.55;;
27957;SDS011;15295;42.658;23.374;2022-11-02T03:03:46;14.52;;;4.15;;
27957;SDS011;15295;42.658;23.374;2022-11-02T03:06:18;19.90;;;5.53;;
27957;SDS011;15295;42.658;23.374;2022-11-02T03:08:56;15.18;;;5.38;;
27957;SDS011;15295;42.658;23.374;2022-11-02T03:11:32;15.98;;;5.07;;
27957;SDS011;15295;42.658;23.374;2022-11-02T03:19:35;13.50;;;5.25;;
27957;SDS011;15295;42.658;23.374;2022-11-02T03:22:29;14.70;;;6.38;;
27957;SDS011;15295;42.658;23.374;2022-11-02T03:28:03;20.00;;;8.73;;
27957;SDS011;15295;42.658;23.374;2022-11-02T03:30:32;28.13;;;11.93;;
27957;SDS011;15295;42.658;23.374;2022-11-02T03:33:08;36.17;;;12.25;;
27957;SDS011;15295;42.658;23.374;2022-11-02T03:38:38;18.85;;;6.90;;
27957;SDS011;15295;42.658;23.374;2022-11-02T03:41:05;20.60;;;7.57;;
27957;SDS011;15295;42.658;23.374;2022-11-02T03:43:32;31.50;;;12.43;;
27957;SDS011;15295;42.658;23.374;2022-11-02T03:46:01;26.77;;;12.40;;
27957;SDS011;15295;42.658;23.374;2022-11-02T03:48:30;30.45;;;11.77;;
27957;SDS011;15295;42.658;23.374;2022-11-02T03:51:08;31.70;;;12.38;;
27957;SDS011;15295;42.658;23.374;2022-11-02T03:53:39;28.65;;;11.80;;
27957;SDS011;15295;42.658;23.374;2022-11-02T03:56:21;38.53;;;14.85;;
27957;SDS011;15295;42.658;23.374;2022-11-02T03:58:50;33.65;;;13.50;;
27957;SDS011;15295;42.658;23.374;2022-11-02T04:01:16;27.55;;;12.00;;
27957;SDS011;15295;42.658;23.374;2022-11-02T04:03:43;27.70;;;10.43;;
27957;SDS011;15295;42.658;23.374;2022-11-02T04:06:10;27.08;;;11.05;;
27957;SDS011;15295;42.658;23.374;2022-11-02T04:08:38;24.85;;;10.32;;
27957;SDS011;15295;42.658;23.374;2022-11-02T04:11:06;30.92;;;10.05;;
27957;SDS011;15295;42.658;23.374;2022-11-02T04:13:51;19.00;;;8.18;;
27957;SDS011;15295;42.658;23.374;2022-11-02T04:16:36;19.75;;;7.88;;
27957;SDS011;15295;42.658;23.374;2022-11-02T04:19:02;20.10;;;8.05;;
27957;SDS011;15295;42.658;23.374;2022-11-02T04:21:46;19.80;;;7.32;;
27957;SDS011;15295;42.658;23.374;2022-11-02T04:27:25;23.88;;;10.90;;
27957;SDS011;15295;42.658;23.374;2022-11-02T04:29:52;33.22;;;13.63;;
27957;SDS011;15295;42.658;23.374;2022-11-02T04:32:18;34.97;;;13.32;;
27957;SDS011;15295;42.658;23.374;2022-11-02T04:35:03;30.95;;;12.63;;
27957;SDS011;15295;42.658;23.374;2022-11-02T04:37:30;30.60;;;13.07;;
27957;SDS011;15295;42.658;23.374;2022-11-02T04:40:14;37.42;;;15.30;;
27957;SDS011;15295;42.658;23.374;2022-11-02T04:42:39;40.47;;;15.75;;
27957;SDS011;15295;42.658;23.374;2022-11-02T04:45:05;39.00;;;13.55;;
27957;SDS011;15295;42.658;23.374;2022-11-02T04:47:34;29.55;;;12.80;;
27957;SDS011;15295;42.658;23.374;2022-11-02T04:50:00;29.45;;;11.90;;
27957;SDS011;15295;42.658;23.374;2022-11-02T04:52:26;30.38;;;12.88;;
27957;SDS011;15295;42.658;23.374;2022-11-02T04:54:55;30.92;;;13.02;;
27957;SDS011;15295;42.658;23.374;2022-11-02T04:57:21;34.35;;;14.15;;
27957;SDS011;15295;42.658;23.374;2022-11-02T04:59:47;33.17;;;13.90;;
27957;SDS011;15295;42.658;23.374;2022-11-02T05:02:12;36.67;;;14.20;;
27957;SDS011;15295;42.658;23.374;2022-11-02T05:04:37;29.90;;;14.50;;
27957;SDS011;15295;42.658;23.374;2022-11-02T05:07:09;30.73;;;13.63;;
27957;SDS011;15295;42.658;23.374;2022-11-02T05:09:35;38.05;;;14.70;;
27957;SDS011;15295;42.658;23.374;2022-11-02T05:12:01;31.65;;;13.77;;
27957;SDS011;15295;42.658;23.374;2022-11-02T05:17:00;27.75;;;12.85;;
27957;SDS011;15295;42.658;23.374;2022-11-02T05:21:53;29.38;;;11.80;;
27957;SDS011;15295;42.658;23.374;2022-11-02T05:24:32;29.65;;;12.52;;
27957;SDS011;15295;42.658;23.374;2022-11-02T05:32:31;34.28;;;10.40;;
27957;SDS011;15295;42.658;23.374;2022-11-02T05:34:56;39.40;;;9.80;;
27957;SDS011;15295;42.658;23.374;2022-11-02T05:40:10;31.60;;;10.05;;
27957;SDS011;15295;42.658;23.374;2022-11-02T05:42:36;36.22;;;10.88;;
27957;SDS011;15295;42.658;23.374;2022-11-02T05:45:01;40.10;;;11.10;;
27957;SDS011;15295;42.658;23.374;2022-11-02T05:47:27;27.40;;;10.40;;
27957;SDS011;15295;42.658;23.374;2022-11-02T05:49:52;33.22;;;9.48;;
27957;SDS011;15295;42.658;23.374;2022-11-02T05:52:18;35.85;;;11.05;;
27957;SDS011;15295;42.658;23.374;2022-11-02T05:54:43;30.27;;;10.23;;
27957;SDS011;15295;42.658;23.374;2022-11-02T05:57:13;24.02;;;10.05;;
27957;SDS011;15295;42.658;23.374;2022-11-02T05:59:41;31.58;;;10.50;;
27957;SDS011;15295;42.658;23.374;2022-11-02T06:02:06;26.33;;;11.07;;
27957;SDS011;15295;42.658;23.374;2022-11-02T06:04:31;31.92;;;10.70;;
27957;SDS011;15295;42.658;23.374;2022-11-02T06:06:59;30.33;;;11.45;;
27957;SDS011;15295;42.658;23.374;2022-11-02T06:09:24;31.90;;;12.30;;
27957;SDS011;15295;42.658;23.374;2022-11-02T06:11:50;31.73;;;11.45;;
27957;SDS011;15295;42.658;23.374;2022-11-02T06:14:15;37.05;;;12.75;;
27957;SDS011;15295;42.658;23.374;2022-11-02T06:19:57;40.53;;;12.57;;
27957;SDS011;15295;42.658;23.374;2022-11-02T06:22:22;38.05;;;14.13;;
27957;SDS011;15295;42.658;23.374;2022-11-02T06:24:48;30.35;;;12.60;;
27957;SDS011;15295;42.658;23.374;2022-11-02T06:29:45;35.22;;;13.90;;
27957;SDS011;15295;42.658;23.374;2022-11-02T06:32:10;43.70;;;13.43;;
27957;SDS011;15295;42.658;23.374;2022-11-02T06:34:35;33.00;;;13.70;;
27957;SDS011;15295;42.658;23.374;2022-11-02T06:37:01;31.73;;;13.88;;
27957;SDS011;15295;42.658;23.374;2022-11-02T06:39:35;33.45;;;14.02;;
27957;SDS011;15295;42.658;23.374;2022-11-02T06:45:00;45.65;;;17.10;;
27957;SDS011;15295;42.658;23.374;2022-11-02T06:47:30;49.97;;;20.73;;
27957;SDS011;15295;42.658;23.374;2022-11-02T06:55:22;44.38;;;18.02;;
27957;SDS011;15295;42.658;23.374;2022-11-02T07:00:48;41.83;;;15.52;;
27957;SDS011;15295;42.658;23.374;2022-11-02T07:03:14;41.25;;;16.67;;
27957;SDS011;15295;42.658;23.374;2022-11-02T07:05:40;37.35;;;17.40;;
27957;SDS011;15295;42.658;23.374;2022-11-02T07:08:19;50.50;;;17.92;;
27957;SDS011;15295;42.658;23.374;2022-11-02T07:10:44;36.65;;;13.98;;
27957;SDS011;15295;42.658;23.374;2022-11-02T07:13:10;39.42;;;17.05;;
27957;SDS011;15295;42.658;23.374;2022-11-02T07:15:39;49.42;;;18.00;;
27957;SDS011;15295;42.658;23.374;2022-11-02T07:18:04;48.20;;;20.38;;
27957;SDS011;15295;42.658;23.374;2022-11-02T07:20:30;49.13;;;18.98;;
27957;SDS011;15295;42.658;23.374;2022-11-02T07:22:57;51.33;;;18.40;;
27957;SDS011;15295;42.658;23.374;2022-11-02T07:25:25;41.67;;;18.20;;
27957;SDS011;15295;42.658;23.374;2022-11-02T07:27:53;48.55;;;19.17;;
27957;SDS011;15295;42.658;23.374;2022-11-02T07:30:19;45.33;;;19.10;;
27957;SDS011;15295;42.658;23.374;2022-11-02T07:32:44;49.92;;;18.80;;
27957;SDS011;15295;42.658;23.374;2022-11-02T07:35:11;55.75;;;19.83;;
27957;SDS011;15295;42.658;23.374;2022-11-02T07:37:37;44.65;;;18.42;;
27957;SDS011;15295;42.658;23.374;2022-11-02T07:40:11;44.33;;;18.85;;
27957;SDS011;15295;42.658;23.374;2022-11-02T07:45:12;40.97;;;18.57;;
27957;SDS011;15295;42.658;23.374;2022-11-02T07:47:42;52.20;;;19.27;;
27957;SDS011;15295;42.658;23.374;2022-11-02T07:50:16;44.35;;;17.08;;
27957;SDS011;15295;42.658;23.374;2022-11-02T07:52:53;51.42;;;18.08;;
27957;SDS011;15295;42.658;23.374;2022-11-02T07:55:23;49.47;;;18.08;;
27957;SDS011;15295;42.658;23.374;2022-11-02T07:57:55;53.60;;;19.45;;
27957;SDS011;15295;42.658;23.374;2022-11-02T08:00:29;46.30;;;17.83;;
27957;SDS011;15295;42.658;23.374;2022-11-02T08:02:57;47.17;;;17.60;;
27957;SDS011;15295;42.658;23.374;2022-11-02T08:05:50;36.17;;;16.98;;
27957;SDS011;15295;42.658;23.374;2022-11-02T08:08:18;35.53;;;17.10;;
27957;SDS011;15295;42.658;23.374;2022-11-02T08:10:48;42.90;;;16.73;;
27957;SDS011;15295;42.658;23.374;2022-11-02T08:13:16;41.88;;;18.30;;
27957;SDS011;15295;42.658;23.374;2022-11-02T08:15:49;35.25;;;17.45;;
27957;SDS011;15295;42.658;23.374;2022-11-02T08:18:17;41.30;;;18.70;;
27957;SDS011;15295;42.658;23.374;2022-11-02T08:20:44;46.90;;;17.60;;
27957;SDS011;15295;42.658;23.374;2022-11-02T08:23:10;50.55;;;18.88;;
27957;SDS011;15295;42.658;23.374;2022-11-02T08:25:36;43.92;;;18.40;;
27957;SDS011;15295;42.658;23.374;2022-11-02T08:28:03;37.72;;;16.55;;
27957;SDS011;15295;42.658;23.374;2022-11-02T08:30:41;45.67;;;18.73;;
27957;SDS011;15295;42.658;23.374;2022-11-02T08:33:12;53.72;;;22.02;;
27957;SDS011;15295;42.658;23.374;2022-11-02T08:35:41;53.72;;;28.27;;
27957;SDS011;15295;42.658;23.374;2022-11-02T08:38:09;47.22;;;18.75;;
27957;SDS011;15295;42.658;23.374;2022-11-02T08:40:37;44.15;;;16.98;;
27957;SDS011;15295;42.658;23.374;2022-11-02T08:43:04;33.03;;;15.52;;
27957;SDS011;15295;42.658;23.374;2022-11-02T08:45:34;35.83;;;15.48;;
27957;SDS011;15295;42.658;23.374;2022-11-02T08:48:00;50.90;;;16.92;;
27957;SDS011;15295;42.658;23.374;2022-11-02T08:50:32;42.03;;;15.45;;
27957;SDS011;15295;42.658;23.374;2022-11-02T08:52:58;44.22;;;15.45;;
27957;SDS011;15295;42.658;23.374;2022-11-02T08:55:24;42.67;;;14.77;;
27957;SDS011;15295;42.658;23.374;2022-11-02T08:57:50;43.92;;;17.33;;
27957;SDS011;15295;42.658;23.374;2022-11-02T09:00:24;41.85;;;16.15;;
27957;SDS011;15295;42.658;23.374;2022-11-02T09:02:58;45.15;;;17.30;;
27957;SDS011;15295;42.658;23.374;2022-11-02T09:05:25;37.63;;;15.50;;
27957;SDS011;15295;42.658;23.374;2022-11-02T09:07:59;37.05;;;15.00;;
27957;SDS011;15295;42.658;23.374;2022-11-02T09:10:33;41.00;;;15.53;;
27957;SDS011;15295;42.658;23.374;2022-11-02T09:12:59;42.08;;;18.30;;
27957;SDS011;15295;42.658;23.374;2022-11-02T09:15:27;40.38;;;15.73;;
27957;SDS011;15295;42.658;23.374;2022-11-02T09:17:53;32.85;;;15.98;;
27957;SDS011;15295;42.658;23.374;2022-11-02T09:20:33;46.20;;;17.55;;
27957;SDS011;15295;42.658;23.374;2022-11-02T09:22:59;38.50;;;16.35;;
27957;SDS011;15295;42.658;23.374;2022-11-02T09:25:24;33.67;;;13.85;;
27957;SDS011;15295;42.658;23.374;2022-11-02T09:27:54;37.30;;;13.48;;
27957;SDS011;15295;42.658;23.374;2022-11-02T09:30:24;40.35;;;16.33;;
27957;SDS011;15295;42.658;23.374;2022-11-02T09:32:56;46.08;;;16.63;;
27957;SDS011;15295;42.658;23.374;2022-11-02T09:35:23;34.60;;;15.80;;
27957;SDS011;15295;42.658;23.374;2022-11-02T09:37:50;47.45;;;24.95;;
27957;SDS011;15295;42.658;23.374;2022-11-02T09:40:26;74.53;;;44.05;;
27957;SDS011;15295;42.658;23.374;2022-11-02T09:45:41;36.80;;;16.48;;
27957;SDS011;15295;42.658;23.374;2022-11-02T09:48:21;44.97;;;16.20;;
27957;SDS011;15295;42.658;23.374;2022-11-02T09:56:46;61.58;;;32.85;;
27957;SDS011;15295;42.658;23.374;2022-11-02T09:59:15;33.63;;;15.02;;
27957;SDS011;15295;42.658;23.374;2022-11-02T10:09:51;40.30;;;14.82;;
27957;SDS011;15295;42.658;23.374;2022-11-02T10:17:47;37.28;;;14.85;;
27957;SDS011;15295;42.658;23.374;2022-11-02T10:20:28;41.80;;;15.30;;
27957;SDS011;15295;42.658;23.374;2022-11-02T10:23:03;35.85;;;15.52;;
27957;SDS011;15295;42.658;23.374;2022-11-02T10:25:32;43.83;;;14.68;;
27957;SDS011;15295;42.658;23.374;2022-11-02T10:28:18;38.75;;;14.57;;
27957;SDS011;15295;42.658;23.374;2022-11-02T10:30:57;35.65;;;15.13;;
27957;SDS011;15295;42.658;23.374;2022-11-02T10:33:48;32.78;;;14.55;;
27957;SDS011;15295;42.658;23.374;2022-11-02T10:36:36;31.02;;;15.20;;
27957;SDS011;15295;42.658;23.374;2022-11-02T10:39:28;36.92;;;14.77;;
27957;SDS011;15295;42.658;23.374;2022-11-02T10:44:48;33.63;;;14.98;;
27957;SDS011;15295;42.658;23.374;2022-11-02T10:53:00;35.08;;;15.77;;
27957;SDS011;15295;42.658;23.374;2022-11-02T10:55:38;33.13;;;13.15;;
27957;SDS011;15295;42.658;23.374;2022-11-02T10:58:14;47.70;;;26.30;;
27957;SDS011;15295;42.658;23.374;2022-11-02T11:00:47;54.63;;;34.42;;
27957;SDS011;15295;42.658;23.374;2022-11-02T11:03:13;39.67;;;17.45;;
27957;SDS011;15295;42.658;23.374;2022-11-02T11:11:23;39.17;;;13.48;;
27957;SDS011;15295;42.658;23.374;2022-11-02T11:16:57;33.28;;;12.30;;
27957;SDS011;15295;42.658;23.374;2022-11-02T11:19:40;38.53;;;13.88;;
27957;SDS011;15295;42.658;23.374;2022-11-02T11:30:11;30.85;;;12.40;;
27957;SDS011;15295;42.658;23.374;2022-11-02T11:32:53;23.15;;;9.50;;
27957;SDS011;15295;42.658;23.374;2022-11-02T11:35:19;65.53;;;47.83;;
27957;SDS011;15295;42.658;23.374;2022-11-02T11:37:49;16.30;;;7.70;;
27957;SDS011;15295;42.658;23.374;2022-11-02T11:40:19;25.02;;;7.75;;
27957;SDS011;15295;42.658;23.374;2022-11-02T11:42:59;17.73;;;6.75;;
27957;SDS011;15295;42.658;23.374;2022-11-02T11:45:58;26.52;;;16.90;;
27957;SDS011;15295;42.658;23.374;2022-11-02T11:51:36;20.80;;;10.55;;
27957;SDS011;15295;42.658;23.374;2022-11-02T11:54:20;18.55;;;6.80;;
27957;SDS011;15295;42.658;23.374;2022-11-02T11:56:46;18.08;;;6.75;;
27957;SDS011;15295;42.658;23.374;2022-11-02T12:02:23;19.33;;;6.65;;
27957;SDS011;15295;42.658;23.374;2022-11-02T12:04:50;17.40;;;5.95;;
27957;SDS011;15295;42.658;23.374;2022-11-02T12:07:22;19.40;;;5.75;;
27957;SDS011;15295;42.658;23.374;2022-11-02T12:30:19;18.52;;;9.30;;
27957;SDS011;15295;42.658;23.374;2022-11-02T12:38:17;20.73;;;5.38;;
27957;SDS011;15295;42.658;23.374;2022-11-02T12:46:23;13.23;;;5.72;;
27957;SDS011;15295;42.658;23.374;2022-11-02T12:56:53;18.58;;;9.18;;
27957;SDS011;15295;42.658;23.374;2022-11-02T13:01:51;17.27;;;6.82;;
27957;SDS011;15295;42.658;23.374;2022-11-02T13:04:28;21.45;;;5.70;;
27957;SDS011;15295;42.658;23.374;2022-11-02T13:07:17;19.48;;;6.30;;
27957;SDS011;15295;42.658;23.374;2022-11-02T13:09:55;26.45;;;8.73;;
27957;SDS011;15295;42.658;23.374;2022-11-02T13:12:31;28.38;;;10.18;;
27957;SDS011;15295;42.658;23.374;2022-11-02T13:15:00;29.77;;;10.65;;
27957;SDS011;15295;42.658;23.374;2022-11-02T13:17:47;22.48;;;7.60;;
27957;SDS011;15295;42.658;23.374;2022-11-02T13:28:57;19.88;;;6.57;;
27957;SDS011;15295;42.658;23.374;2022-11-02T13:33:59;28.83;;;13.30;;
27957;SDS011;15295;42.658;23.374;2022-11-02T13:36:28;19.83;;;6.63;;
27957;SDS011;15295;42.658;23.374;2022-11-02T13:50:01;16.90;;;5.38;;
27957;SDS011;15295;42.658;23.374;2022-11-02T13:55:36;23.42;;;5.80;;
27957;SDS011;15295;42.658;23.374;2022-11-02T13:58:06;17.65;;;6.88;;
27957;SDS011;15295;42.658;23.374;2022-11-02T14:00:49;19.25;;;5.60;;
27957;SDS011;15295;42.658;23.374;2022-11-02T14:06:20;23.67;;;8.82;;
27957;SDS011;15295;42.658;23.374;2022-11-02T14:08:48;22.58;;;10.48;;
27957;SDS011;15295;42.658;23.374;2022-11-02T14:21:43;21.48;;;6.00;;
27957;SDS011;15295;42.658;23.374;2022-11-02T14:37:56;15.63;;;6.30;;
27957;SDS011;15295;42.658;23.374;2022-11-02T14:49:00;24.55;;;7.80;;
27957;SDS011;15295;42.658;23.374;2022-11-02T14:51:29;24.60;;;6.63;;
27957;SDS011;15295;42.658;23.374;2022-11-02T14:54:15;21.38;;;6.22;;
27957;SDS011;15295;42.658;23.374;2022-11-02T14:56:53;25.10;;;8.40;;
27957;SDS011;15295;42.658;23.374;2022-11-02T14:59:36;25.02;;;6.93;;
27957;SDS011;15295;42.658;23.374;2022-11-02T15:05:18;18.67;;;6.53;;
27957;SDS011;15295;42.658;23.374;2022-11-02T15:08:27;15.32;;;6.38;;
27957;SDS011;15295;42.658;23.374;2022-11-02T15:10:56;23.70;;;7.55;;
27957;SDS011;15295;42.658;23.374;2022-11-02T15:13:23;22.75;;;6.70;;
27957;SDS011;15295;42.658;23.374;2022-11-02T15:18:34;14.80;;;6.32;;
27957;SDS011;15295;42.658;23.374;2022-11-02T15:26:03;19.07;;;7.33;;
27957;SDS011;15295;42.658;23.374;2022-11-02T15:28:31;22.30;;;7.85;;
27957;SDS011;15295;42.658;23.374;2022-11-02T15:31:00;18.60;;;7.00;;
27957;SDS011;15295;42.658;23.374;2022-11-02T15:33:36;20.15;;;6.93;;
27957;SDS011;15295;42.658;23.374;2022-11-02T15:36:11;24.15;;;8.52;;
27957;SDS011;15295;42.658;23.374;2022-11-02T15:38:47;28.90;;;8.00;;
27957;SDS011;15295;42.658;23.374;2022-11-02T16:01:32;26.27;;;7.55;;
27957;SDS011;15295;42.658;23.374;2022-11-02T16:03:59;30.65;;;8.00;;
27957;SDS011;15295;42.658;23.374;2022-11-02T16:06:39;24.23;;;7.45;;
27957;SDS011;15295;42.658;23.374;2022-11-02T16:15:08;26.38;;;6.70;;
27957;SDS011;15295;42.658;23.374;2022-11-02T16:17:36;25.23;;;7.82;;
27957;SDS011;15295;42.658;23.374;2022-11-02T16:22:49;27.55;;;7.53;;
27957;SDS011;15295;42.658;23.374;2022-11-02T16:25:19;23.58;;;7.97;;
27957;SDS011;15295;42.658;23.374;2022-11-02T16:27:53;31.15;;;8.10;;
27957;SDS011;15295;42.658;23.374;2022-11-02T16:30:19;30.67;;;9.60;;
27957;SDS011;15295;42.658;23.374;2022-11-02T16:32:46;34.10;;;10.32;;
27957;SDS011;15295;42.658;23.374;2022-11-02T16:35:29;28.88;;;10.25;;
27957;SDS011;15295;42.658;23.374;2022-11-02T16:37:55;44.30;;;16.10;;
27957;SDS011;15295;42.658;23.374;2022-11-02T16:40:21;27.17;;;10.43;;
27957;SDS011;15295;42.658;23.374;2022-11-02T16:42:47;31.08;;;9.13;;
27957;SDS011;15295;42.658;23.374;2022-11-02T16:45:28;22.45;;;7.72;;
27957;SDS011;15295;42.658;23.374;2022-11-02T16:47:56;23.80;;;8.00;;
27957;SDS011;15295;42.658;23.374;2022-11-02T16:50:25;27.90;;;8.70;;
27957;SDS011;15295;42.658;23.374;2022-11-02T16:52:57;24.35;;;8.20;;
27957;SDS011;15295;42.658;23.374;2022-11-02T16:55:32;26.92;;;8.30;;
27957;SDS011;15295;42.658;23.374;2022-11-02T16:58:12;29.98;;;9.07;;
27957;SDS011;15295;42.658;23.374;2022-11-02T17:03:16;25.13;;;9.00;;
27957;SDS011;15295;42.658;23.374;2022-11-02T17:05:48;26.48;;;8.77;;
27957;SDS011;15295;42.658;23.374;2022-11-02T17:08:25;30.00;;;9.23;;
27957;SDS011;15295;42.658;23.374;2022-11-02T17:11:00;32.40;;;9.15;;
27957;SDS011;15295;42.658;23.374;2022-11-02T17:13:29;23.50;;;8.50;;
27957;SDS011;15295;42.658;23.374;2022-11-02T17:16:05;25.95;;;9.55;;
27957;SDS011;15295;42.658;23.374;2022-11-02T17:18:33;30.33;;;10.18;;
27957;SDS011;15295;42.658;23.374;2022-11-02T17:23:53;29.08;;;10.85;;
27957;SDS011;15295;42.658;23.374;2022-11-02T17:26:24;34.92;;;12.38;;
27957;SDS011;15295;42.658;23.374;2022-11-02T17:34:01;21.75;;;9.32;;
27957;SDS011;15295;42.658;23.374;2022-11-02T17:59:56;26.13;;;7.53;;
27957;SDS011;15295;42.658;23.374;2022-11-02T18:02:22;22.65;;;6.75;;
27957;SDS011;15295;42.658;23.374;2022-11-02T18:04:57;21.02;;;6.72;;
27957;SDS011;15295;42.658;23.374;2022-11-02T18:07:29;25.45;;;7.32;;
27957;SDS011;15295;42.658;23.374;2022-11-02T18:09:55;18.20;;;6.75;;
27957;SDS011;15295;42.658;23.374;2022-11-02T18:12:22;22.42;;;6.88;;
27957;SDS011;15295;42.658;23.374;2022-11-02T18:14:52;18.88;;;6.80;;
27957;SDS011;15295;42.658;23.374;2022-11-02T18:17:20;22.85;;;9.88;;
27957;SDS011;15295;42.658;23.374;2022-11-02T18:19:47;31.77;;;13.15;;
27957;SDS011;15295;42.658;23.374;2022-11-02T18:22:13;16.92;;;7.30;;
27957;SDS011;15295;42.658;23.374;2022-11-02T18:24:44;17.77;;;7.05;;
27957;SDS011;15295;42.658;23.374;2022-11-02T18:27:10;21.85;;;8.38;;
27957;SDS011;15295;42.658;23.374;2022-11-02T18:29:40;19.83;;;6.53;;
27957;SDS011;15295;42.658;23.374;2022-11-02T18:32:06;16.00;;;6.10;;
27957;SDS011;15295;42.658;23.374;2022-11-02T18:34:33;14.82;;;5.65;;
27957;SDS011;15295;42.658;23.374;2022-11-02T18:37:00;23.20;;;6.38;;
27957;SDS011;15295;42.658;23.374;2022-11-02T18:39:53;28.05;;;11.45;;
27957;SDS011;15295;42.658;23.374;2022-11-02T18:42:19;19.05;;;6.55;;
27957;SDS011;15295;42.658;23.374;2022-11-02T18:44:44;22.42;;;5.75;;
27957;SDS011;15295;42.658;23.374;2022-11-02T18:58:08;24.45;;;7.47;;
27957;SDS011;15295;42.658;23.374;2022-11-02T19:00:35;16.17;;;6.55;;
27957;SDS011;15295;42.658;23.374;2022-11-02T19:03:00;16.00;;;6.47;;
27957;SDS011;15295;42.658;23.374;2022-11-02T19:05:26;21.58;;;7.70;;
27957;SDS011;15295;42.658;23.374;2022-11-02T19:11:13;19.65;;;11.52;;
27957;SDS011;15295;42.658;23.374;2022-11-02T19:13:38;24.95;;;6.28;;
27957;SDS011;15295;42.658;23.374;2022-11-02T19:16:04;20.33;;;7.18;;
27957;SDS011;15295;42.658;23.374;2022-11-02T19:18:32;15.30;;;7.43;;
27957;SDS011;15295;42.658;23.374;2022-11-02T19:20:58;19.63;;;7.18;;
27957;SDS011;15295;42.658;23.374;2022-11-02T19:23:23;18.48;;;7.70;;
27957;SDS011;15295;42.658;23.374;2022-11-02T19:25:49;22.20;;;7.55;;
27957;SDS011;15295;42.658;23.374;2022-11-02T19:28:19;20.50;;;7.68;;
27957;SDS011;15295;42.658;23.374;2022-11-02T19:30:45;21.30;;;8.30;;
27957;SDS011;15295;42.658;23.374;2022-11-02T19:33:17;22.13;;;8.20;;
27957;SDS011;15295;42.658;23.374;2022-11-02T19:36:05;19.47;;;8.30;;
27957;SDS011;15295;42.658;23.374;2022-11-02T19:38:38;20.63;;;8.85;;
27957;SDS011;15295;42.658;23.374;2022-11-02T19:41:07;19.50;;;8.05;;
27957;SDS011;15295;42.658;23.374;2022-11-02T19:44:02;20.33;;;8.68;;
27957;SDS011;15295;42.658;23.374;2022-11-02T19:46:38;17.58;;;7.10;;
27957;SDS011;15295;42.658;23.374;2022-11-02T19:49:04;21.08;;;11.43;;
27957;SDS011;15295;42.658;23.374;2022-11-02T19:51:29;24.63;;;10.27;;